createdAt,value
2022-09-17T00:00:22.332Z,67.84
2022-09-17T00:02:55.664Z,67.93
2022-09-17T00:05:23.592Z,67.35
2022-09-17T00:07:51.741Z,67.80
2022-09-17T00:10:19.582Z,67.91
2022-09-17T00:12:46.933Z,67.78
2022-09-17T00:15:13.656Z,67.83
2022-09-17T00:17:41.589Z,67.75
2022-09-17T00:20:10.506Z,67.72
2022-09-17T00:22:39.958Z,67.67
2022-09-17T00:25:08.549Z,67.86
2022-09-17T00:27:35.314Z,67.66
2022-09-17T00:30:02.287Z,67.81
2022-09-17T00:32:29.024Z,67.80
2022-09-17T00:34:55.817Z,67.82
2022-09-17T00:37:22.575Z,67.90
2022-09-17T00:39:49.344Z,67.96
2022-09-17T00:42:17.084Z,67.90
2022-09-17T00:44:50.714Z,67.92
2022-09-17T00:47:29.087Z,67.81
2022-09-17T00:49:59.748Z,67.69
2022-09-17T00:52:31.647Z,67.87
2022-09-17T00:55:03.563Z,67.97
2022-09-17T00:57:31.398Z,68.00
2022-09-17T00:59:58.186Z,68.02
2022-09-17T01:02:25.279Z,68.03
2022-09-17T01:04:52.072Z,68.09
2022-09-17T01:07:27.565Z,68.40
2022-09-17T01:10:18.498Z,68.13
2022-09-17T01:13:07.376Z,68.26
2022-09-17T01:15:54.478Z,68.16
2022-09-17T01:18:24.965Z,68.12
2022-09-17T01:21:01.606Z,68.23
2022-09-17T01:23:47.238Z,68.01
2022-09-17T01:26:36.399Z,68.14
2022-09-17T01:29:43.213Z,68.03
2022-09-17T01:32:12.680Z,68.14
2022-09-17T01:34:55.603Z,68.29
2022-09-17T01:37:30.911Z,68.16
2022-09-17T01:40:08.437Z,68.25
2022-09-17T01:42:59.612Z,68.01
2022-09-17T01:45:38.867Z,68.23
2022-09-17T01:48:18.616Z,68.35
2022-09-17T01:51:01.094Z,68.27
2022-09-17T01:53:36.738Z,68.21
2022-09-17T01:56:03.715Z,68.47
2022-09-17T01:58:35.447Z,68.29
2022-09-17T02:01:05.063Z,68.26
2022-09-17T02:03:58.159Z,68.38
2022-09-17T02:06:29.888Z,68.41
2022-09-17T02:09:01.071Z,68.49
2022-09-17T02:11:28.299Z,68.33
2022-09-17T02:14:08.286Z,68.37
2022-09-17T02:16:36.696Z,68.39
2022-09-17T02:19:10.596Z,68.22
2022-09-17T02:22:03.515Z,68.34
2022-09-17T02:25:02.452Z,68.21
2022-09-17T02:27:51.071Z,68.43
2022-09-17T02:30:17.949Z,68.17
2022-09-17T02:32:44.940Z,68.28
2022-09-17T02:35:13.843Z,68.38
2022-09-17T02:37:41.832Z,68.15
2022-09-17T02:40:09.598Z,68.20
2022-09-17T02:42:58.898Z,68.27
2022-09-17T02:45:34.880Z,68.11
2022-09-17T02:48:39.096Z,68.00
2022-09-17T02:51:41.100Z,68.03
2022-09-17T02:54:18.373Z,68.24
2022-09-17T02:57:05.332Z,68.42
2022-09-17T03:00:02.882Z,68.15
2022-09-17T03:02:39.829Z,68.15
2022-09-17T03:05:07.793Z,68.07
2022-09-17T03:07:34.569Z,67.81
2022-09-17T03:10:01.313Z,68.27
2022-09-17T03:12:28.029Z,68.15
2022-09-17T03:14:54.811Z,68.12
2022-09-17T03:17:21.542Z,68.29
2022-09-17T03:19:48.288Z,67.80
2022-09-17T03:22:15.300Z,68.00
2022-09-17T03:24:42.142Z,68.21
2022-09-17T03:27:08.900Z,68.12
2022-09-17T03:29:35.714Z,68.11
2022-09-17T03:32:02.518Z,67.91
2022-09-17T03:34:29.230Z,67.89
2022-09-17T03:36:55.947Z,68.48
2022-09-17T03:39:22.690Z,68.09
2022-09-17T03:41:49.422Z,68.10
2022-09-17T03:44:18.501Z,68.22
2022-09-17T03:46:45.705Z,68.03
2022-09-17T03:49:12.465Z,67.99
2022-09-17T03:51:39.186Z,68.20
2022-09-17T03:54:06.600Z,68.23
2022-09-17T03:56:33.565Z,68.35
2022-09-17T03:59:00.803Z,68.18
2022-09-17T04:01:28.101Z,68.07
2022-09-17T04:03:55.333Z,68.04
2022-09-17T04:06:22.147Z,68.06
2022-09-17T04:08:48.894Z,67.95
2022-09-17T04:11:15.809Z,67.91
2022-09-17T04:13:42.544Z,67.99
2022-09-17T04:16:09.396Z,67.89
2022-09-17T04:18:36.199Z,67.90
2022-09-17T04:21:03.650Z,67.94
2022-09-17T04:23:30.415Z,67.77
2022-09-17T04:25:57.151Z,68.09
2022-09-17T04:28:23.912Z,67.88
2022-09-17T04:30:50.793Z,68.07
2022-09-17T04:33:17.623Z,68.25
2022-09-17T04:35:45.176Z,68.09
2022-09-17T04:38:13.761Z,68.13
2022-09-17T04:40:42.242Z,68.02
2022-09-17T04:43:10.502Z,68.18
2022-09-17T04:45:37.270Z,68.20
2022-09-17T04:48:04.343Z,68.17
2022-09-17T04:50:31.214Z,68.26
2022-09-17T04:52:57.946Z,68.10
2022-09-17T04:55:25.370Z,68.22
2022-09-17T04:57:53.387Z,68.40
2022-09-17T05:00:21.275Z,68.43
2022-09-17T05:02:49.908Z,68.36
2022-09-17T05:05:18.161Z,68.39
2022-09-17T05:07:44.905Z,68.38
2022-09-17T05:10:12.702Z,68.42
2022-09-17T05:12:39.482Z,68.56
2022-09-17T05:15:06.888Z,68.38
2022-09-17T05:17:33.614Z,68.48
2022-09-17T05:20:00.352Z,68.44
2022-09-17T05:22:27.072Z,68.65
2022-09-17T05:24:53.863Z,68.62
2022-09-17T05:27:20.710Z,68.45
2022-09-17T05:29:47.430Z,68.67
2022-09-17T05:32:14.167Z,68.59
2022-09-17T05:34:41.458Z,68.46
2022-09-17T05:37:11.629Z,68.69
2022-09-17T05:39:38.434Z,68.60
2022-09-17T05:42:05.302Z,68.83
2022-09-17T05:44:32.120Z,68.62
2022-09-17T05:46:59.246Z,68.55
2022-09-17T05:49:26.099Z,68.54
2022-09-17T05:51:52.817Z,68.60
2022-09-17T05:54:19.617Z,68.43
2022-09-17T05:56:46.417Z,68.73
2022-09-17T05:59:13.197Z,68.51
2022-09-17T06:01:39.993Z,68.74
2022-09-17T06:04:06.738Z,68.44
2022-09-17T06:06:33.522Z,68.50
2022-09-17T06:09:00.522Z,68.49
2022-09-17T06:11:27.328Z,68.22
2022-09-17T06:13:54.811Z,68.34
2022-09-17T06:16:22.894Z,68.47
2022-09-17T06:18:55.604Z,68.37
2022-09-17T06:21:22.884Z,68.49
2022-09-17T06:23:50.477Z,68.61
2022-09-17T06:26:17.643Z,68.40
2022-09-17T06:28:44.739Z,68.72
2022-09-17T06:31:12.622Z,68.42
2022-09-17T06:33:39.615Z,68.43
2022-09-17T06:36:14.141Z,68.35
2022-09-17T06:38:41.969Z,68.10
2022-09-17T06:41:08.849Z,68.15
2022-09-17T06:43:35.622Z,68.25
2022-09-17T06:46:05.974Z,68.16
2022-09-17T06:48:35.311Z,68.35
2022-09-17T06:51:06.516Z,68.27
2022-09-17T06:53:33.731Z,68.35
2022-09-17T06:56:05.883Z,68.13
2022-09-17T06:58:34.033Z,67.92
2022-09-17T07:01:01.543Z,67.95
2022-09-17T07:03:29.068Z,68.30
2022-09-17T07:05:55.853Z,67.98
2022-09-17T07:08:22.807Z,68.21
2022-09-17T07:10:49.791Z,67.85
2022-09-17T07:13:16.500Z,68.06
2022-09-17T07:15:43.319Z,68.29
2022-09-17T07:18:11.521Z,68.40
2022-09-17T07:20:39.142Z,68.14
2022-09-17T07:23:05.878Z,67.93
2022-09-17T07:25:32.600Z,67.49
2022-09-17T07:27:59.701Z,66.65
2022-09-17T07:30:26.534Z,65.93
2022-09-17T07:32:53.262Z,64.95
2022-09-17T07:35:19.977Z,64.13
2022-09-17T07:37:47.496Z,63.84
2022-09-17T07:40:14.309Z,63.34
2022-09-17T07:42:41.098Z,62.60
2022-09-17T07:45:08.253Z,61.67
2022-09-17T07:47:39.989Z,62.05
2022-09-17T07:50:07.959Z,61.99
2022-09-17T07:52:34.706Z,61.94
2022-09-17T07:55:01.517Z,62.07
2022-09-17T07:57:28.295Z,61.75
2022-09-17T07:59:55.076Z,61.87
2022-09-17T08:02:24.311Z,61.28
2022-09-17T08:04:51.451Z,60.87
2022-09-17T08:07:18.421Z,60.91
2022-09-17T08:09:45.138Z,60.51
2022-09-17T08:12:12.006Z,60.72
2022-09-17T08:14:38.832Z,61.03
2022-09-17T08:17:08.095Z,60.72
2022-09-17T08:19:34.891Z,61.16
2022-09-17T08:22:01.674Z,61.58
2022-09-17T08:24:28.449Z,60.63
2022-09-17T08:26:55.238Z,61.30
2022-09-17T08:29:22.012Z,61.95
2022-09-17T08:31:49.024Z,62.86
2022-09-17T08:34:15.804Z,63.42
2022-09-17T08:36:42.529Z,64.11
2022-09-17T08:39:11.057Z,64.46
2022-09-17T08:41:52.621Z,64.54
2022-09-17T08:44:25.612Z,64.47
2022-09-17T08:46:54.908Z,63.06
2022-09-17T08:49:37.160Z,64.55
2022-09-17T08:52:33.894Z,64.89
2022-09-17T08:55:13.230Z,65.45
2022-09-17T08:57:45.345Z,65.81
2022-09-17T09:00:22.776Z,65.89
2022-09-17T09:03:13.822Z,66.00
2022-09-17T09:05:46.362Z,65.86
2022-09-17T09:08:44.009Z,66.44
2022-09-17T09:11:16.504Z,66.36
2022-09-17T09:13:45.598Z,66.04
2022-09-17T09:16:25.058Z,65.96
2022-09-17T09:18:54.820Z,66.15
2022-09-17T09:24:42.449Z,66.22
2022-09-17T09:27:19.328Z,66.41
2022-09-17T09:30:08.974Z,65.82
2022-09-17T09:32:54.005Z,65.94
2022-09-17T09:35:32.939Z,65.92
2022-09-17T09:38:04.746Z,66.23
2022-09-17T09:40:37.246Z,66.33
2022-09-17T09:43:15.582Z,66.32
2022-09-17T09:46:03.785Z,66.14
2022-09-17T09:48:49.069Z,65.88
2022-09-17T09:51:33.036Z,65.70
2022-09-17T09:54:41.199Z,62.13
2022-09-17T09:57:12.292Z,64.60
2022-09-17T09:59:41.314Z,64.63
2022-09-17T10:02:08.763Z,64.95
2022-09-17T10:04:35.730Z,64.68
2022-09-17T10:07:07.704Z,64.86
2022-09-17T10:09:37.133Z,64.99
2022-09-17T10:12:10.868Z,64.94
2022-09-17T10:14:39.287Z,65.10
2022-09-17T10:17:14.465Z,62.72
2022-09-17T10:19:42.046Z,64.13
2022-09-17T10:22:20.059Z,64.47
2022-09-17T10:24:47.477Z,64.88
2022-09-17T10:27:16.990Z,64.78
2022-09-17T10:29:45.911Z,64.76
2022-09-17T10:32:20.778Z,65.00
2022-09-17T10:35:24.172Z,63.35
2022-09-17T10:37:54.401Z,63.76
2022-09-17T10:40:21.086Z,64.51
2022-09-17T10:42:49.441Z,64.11
2022-09-17T10:45:30.342Z,64.56
2022-09-17T10:47:58.373Z,64.62
2022-09-17T10:50:28.828Z,64.45
2022-09-17T10:52:57.926Z,64.21
2022-09-17T10:55:35.783Z,64.09
2022-09-17T10:58:08.344Z,59.64
2022-09-17T11:00:45.165Z,62.88
2022-09-17T11:03:30.314Z,63.02
2022-09-17T11:06:27.076Z,62.37
2022-09-17T11:09:12.633Z,62.18
2022-09-17T11:11:40.239Z,62.67
2022-09-17T11:14:15.948Z,63.09
2022-09-17T11:17:08.018Z,63.49
2022-09-17T11:19:45.511Z,62.16
2022-09-17T11:22:20.080Z,61.34
2022-09-17T11:25:06.708Z,57.39
2022-09-17T11:27:33.332Z,56.79
2022-09-17T11:30:15.807Z,57.04
2022-09-17T11:32:54.776Z,58.10
2022-09-17T11:35:29.813Z,59.12
2022-09-17T11:38:03.946Z,59.46
2022-09-17T11:41:04.623Z,60.15
2022-09-17T11:44:03.857Z,60.24
2022-09-17T11:46:53.974Z,61.15
2022-09-17T11:49:56.228Z,61.57
2022-09-17T11:52:24.687Z,61.54
2022-09-17T11:55:42.886Z,62.13
2022-09-17T11:58:34.701Z,62.55
2022-09-17T12:01:18.967Z,62.82
2022-09-17T12:04:11.423Z,62.53
2022-09-17T12:06:58.339Z,62.78
2022-09-17T12:09:28.572Z,62.58
2022-09-17T12:12:31.739Z,62.60
2022-09-17T12:15:47.764Z,62.55
2022-09-17T12:18:42.665Z,62.48
2022-09-17T12:21:11.056Z,62.91
2022-09-17T12:23:43.522Z,63.12
2022-09-17T12:26:19.138Z,63.11
2022-09-17T12:28:56.674Z,63.33
2022-09-17T12:31:46.166Z,63.86
2022-09-17T12:34:25.920Z,63.59
2022-09-17T12:37:04.342Z,63.84
2022-09-17T12:39:40.258Z,63.91
2022-09-17T12:42:46.039Z,63.98
2022-09-17T12:45:35.170Z,64.27
2022-09-17T12:48:14.445Z,64.42
2022-09-17T12:50:53.320Z,64.36
2022-09-17T12:53:31.966Z,64.48
2022-09-17T12:56:14.877Z,64.41
2022-09-17T12:58:56.848Z,64.54
2022-09-17T13:01:42.514Z,64.52
2022-09-17T13:04:38.128Z,64.71
2022-09-17T13:07:41.153Z,64.53
2022-09-17T13:10:43.206Z,64.70
2022-09-17T13:13:43.047Z,64.69
2022-09-17T13:16:19.960Z,64.86
2022-09-17T13:19:17.628Z,64.75
2022-09-17T13:22:00.245Z,64.98
2022-09-17T13:24:30.936Z,65.16
2022-09-17T13:26:59.186Z,65.21
2022-09-17T13:29:44.659Z,65.11
2022-09-17T13:32:33.011Z,65.51
2022-09-17T13:35:12.026Z,65.72
2022-09-17T13:37:54.141Z,65.82
2022-09-17T13:40:23.354Z,65.95
2022-09-17T13:42:57.930Z,65.85
2022-09-17T13:45:25.762Z,65.91
2022-09-17T13:47:53.485Z,65.89
2022-09-17T13:50:38.095Z,66.20
2022-09-17T13:53:16.931Z,66.16
2022-09-17T13:55:51.777Z,66.01
2022-09-17T13:58:18.643Z,65.93
2022-09-17T14:01:05.437Z,65.78
2022-09-17T14:03:34.172Z,66.06
2022-09-17T14:06:11.031Z,66.29
2022-09-17T14:08:43.659Z,66.42
2022-09-17T14:11:22.420Z,66.28
2022-09-17T14:14:04.382Z,66.31
2022-09-17T14:16:37.159Z,66.52
2022-09-17T14:19:16.467Z,66.66
2022-09-17T14:21:46.289Z,66.71
2022-09-17T14:24:23.360Z,66.67
2022-09-17T14:27:02.159Z,67.14
2022-09-17T14:30:16.039Z,66.86
2022-09-17T14:32:46.640Z,67.37
2022-09-17T14:35:20.667Z,67.58
2022-09-17T14:38:12.701Z,67.55
2022-09-17T14:40:45.240Z,67.79
2022-09-17T14:43:19.113Z,67.21
2022-09-17T14:45:48.674Z,67.26
2022-09-17T14:48:19.582Z,67.34
2022-09-17T14:50:46.604Z,67.19
2022-09-17T14:53:18.860Z,67.37
2022-09-17T14:55:47.836Z,67.13
2022-09-17T14:58:36.718Z,67.21
2022-09-17T15:01:03.873Z,67.13
2022-09-17T15:03:30.666Z,67.28
2022-09-17T15:05:57.496Z,67.17
2022-09-17T15:08:27.917Z,67.06
2022-09-17T15:11:01.425Z,67.51
2022-09-17T15:13:42.444Z,67.31
2022-09-17T15:16:30.556Z,66.98
2022-09-17T15:19:01.711Z,67.15
2022-09-17T15:21:35.260Z,66.89
2022-09-17T15:24:13.506Z,66.86
2022-09-17T15:26:42.667Z,67.05
2022-09-17T15:29:13.640Z,67.25
2022-09-17T15:31:41.136Z,67.45
2022-09-17T15:34:11.320Z,67.32
2022-09-17T15:36:38.046Z,67.49
2022-09-17T15:39:31.438Z,67.54
2022-09-17T15:41:58.869Z,67.56
2022-09-17T15:44:31.185Z,67.82
2022-09-17T15:47:56.280Z,67.64
2022-09-17T15:50:28.440Z,67.69
2022-09-17T15:53:05.313Z,67.85
2022-09-17T15:55:41.242Z,68.07
2022-09-17T15:58:29.217Z,68.22
2022-09-17T16:01:15.885Z,68.06
2022-09-17T16:03:48.039Z,68.14
2022-09-17T16:06:20.898Z,68.29
2022-09-17T16:08:57.471Z,68.07
2022-09-17T16:11:30.037Z,68.29
2022-09-17T16:13:58.748Z,68.33
2022-09-17T16:16:36.177Z,68.39
2022-09-17T16:19:04.357Z,68.52
2022-09-17T16:21:32.125Z,68.43
2022-09-17T16:23:59.259Z,68.76
2022-09-17T16:26:29.282Z,68.71
2022-09-17T16:29:03.404Z,68.58
2022-09-17T16:31:30.319Z,68.75
2022-09-17T16:33:57.073Z,68.50
2022-09-17T16:36:24.124Z,68.81
2022-09-17T16:38:50.827Z,68.75
2022-09-17T16:41:17.504Z,68.70
2022-09-17T16:43:44.216Z,68.64
2022-09-17T16:46:11.312Z,68.82
2022-09-17T16:48:38.515Z,68.94
2022-09-17T16:51:11.892Z,68.88
2022-09-17T16:53:38.849Z,68.94
2022-09-17T16:56:13.997Z,69.00
2022-09-17T16:58:41.681Z,69.11
2022-09-17T17:01:13.874Z,69.02
2022-09-17T17:03:41.321Z,69.15
2022-09-17T17:06:19.742Z,69.02
2022-09-17T17:08:46.440Z,69.25
2022-09-17T17:11:13.445Z,69.34
2022-09-17T17:13:42.277Z,69.39
2022-09-17T17:16:10.825Z,69.29
2022-09-17T17:18:37.838Z,69.35
2022-09-17T17:21:06.208Z,69.13
2022-09-17T17:23:33.897Z,69.03
2022-09-17T17:26:00.755Z,69.43
2022-09-17T17:28:27.461Z,69.40
2022-09-17T17:30:54.268Z,69.49
2022-09-17T17:33:21.056Z,69.47
2022-09-17T17:35:47.756Z,69.45
2022-09-17T17:38:17.432Z,69.64
2022-09-17T17:40:45.183Z,69.61
2022-09-17T17:43:12.518Z,69.69
2022-09-17T17:45:39.937Z,69.55
2022-09-17T17:48:06.645Z,69.62
2022-09-17T17:50:33.498Z,69.70
2022-09-17T17:53:00.221Z,69.72
2022-09-17T17:55:26.976Z,69.65
2022-09-17T17:58:01.027Z,69.56
2022-09-17T18:00:28.490Z,69.97
2022-09-17T18:02:55.253Z,69.78
2022-09-17T18:05:22.022Z,69.85
2022-09-17T18:07:49.542Z,69.99
2022-09-17T18:10:16.526Z,69.99
2022-09-17T18:12:50.321Z,70.07
2022-09-17T18:15:17.266Z,70.21
2022-09-17T18:17:43.984Z,70.11
2022-09-17T18:20:10.958Z,70.26
2022-09-17T18:22:40.560Z,70.25
2022-09-17T18:25:07.698Z,69.96
2022-09-17T18:27:34.402Z,70.26
2022-09-17T18:30:01.137Z,70.30
2022-09-17T18:32:28.021Z,70.06
2022-09-17T18:34:54.734Z,70.21
2022-09-17T18:37:21.452Z,70.13
2022-09-17T18:40:04.428Z,70.24
2022-09-17T18:42:31.844Z,70.28
2022-09-17T18:44:58.557Z,70.43
2022-09-17T18:47:25.289Z,70.28
2022-09-17T18:49:51.985Z,70.35
2022-09-17T18:52:19.083Z,70.29
2022-09-17T18:54:45.942Z,70.44
2022-09-17T18:57:13.088Z,70.15
2022-09-17T18:59:40.077Z,70.42
2022-09-17T19:02:06.913Z,70.44
2022-09-17T19:04:33.663Z,70.39
2022-09-17T19:07:00.895Z,70.49
2022-09-17T19:09:27.712Z,70.48
2022-09-17T19:11:54.649Z,70.35
2022-09-17T19:14:21.350Z,70.40
2022-09-17T19:16:48.040Z,70.75
2022-09-17T19:19:14.766Z,70.52
2022-09-17T19:21:41.441Z,70.54
2022-09-17T19:24:08.388Z,70.56
2022-09-17T19:26:35.097Z,70.49
2022-09-17T19:29:01.957Z,70.68
2022-09-17T19:31:29.122Z,70.81
2022-09-17T19:33:56.517Z,70.74
2022-09-17T19:36:23.268Z,70.82
2022-09-17T19:38:49.979Z,70.83
2022-09-17T19:41:18.764Z,70.81
2022-09-17T19:43:46.122Z,70.76
2022-09-17T19:46:15.098Z,70.90
2022-09-17T19:48:49.577Z,70.77
2022-09-17T19:51:17.712Z,70.76
2022-09-17T19:53:44.786Z,70.72
2022-09-17T19:56:16.954Z,70.79
2022-09-17T19:58:43.650Z,70.64
2022-09-17T20:01:10.946Z,70.57
2022-09-17T20:03:41.458Z,70.89
2022-09-17T20:06:10.483Z,70.74
2022-09-17T20:08:42.522Z,70.96
2022-09-17T20:11:12.556Z,70.66
2022-09-17T20:13:39.245Z,70.96
2022-09-17T20:16:13.513Z,70.81
2022-09-17T20:18:40.322Z,70.96
2022-09-17T20:21:11.866Z,70.78
2022-09-17T20:23:38.702Z,70.92
2022-09-17T20:26:06.287Z,70.81
2022-09-17T20:28:33.374Z,70.69
2022-09-17T20:31:25.162Z,70.90
2022-09-17T20:33:57.576Z,70.82
2022-09-17T20:36:26.536Z,70.98
2022-09-17T20:41:42.137Z,70.80
2022-09-17T20:44:08.857Z,70.82
2022-09-17T20:46:35.641Z,70.92
2022-09-17T20:49:02.402Z,70.96
2022-09-17T20:51:30.096Z,70.89
2022-09-17T20:53:57.436Z,70.46
2022-09-17T20:56:27.331Z,70.78
2022-09-17T20:59:04.092Z,70.96
2022-09-17T21:01:34.372Z,71.00
2022-09-17T21:04:02.091Z,70.87
2022-09-17T21:06:34.822Z,71.00
2022-09-17T21:09:01.989Z,70.90
2022-09-17T21:11:29.803Z,70.79
2022-09-17T21:13:56.591Z,70.62
2022-09-17T21:16:23.398Z,70.69
2022-09-17T21:18:56.312Z,70.68
2022-09-17T21:21:23.061Z,70.77
2022-09-17T21:23:50.648Z,70.61
2022-09-17T21:26:19.346Z,70.51
2022-09-17T21:28:47.733Z,70.53
2022-09-17T21:31:20.233Z,70.56
2022-09-17T21:33:48.178Z,70.25
2022-09-17T21:36:17.164Z,70.01
2022-09-17T21:38:43.909Z,69.93
2022-09-17T21:41:15.364Z,69.79
2022-09-17T21:43:43.059Z,70.05
2022-09-17T21:46:11.961Z,70.00
2022-09-17T21:48:44.258Z,69.85
2022-09-17T21:51:12.853Z,69.75
2022-09-17T21:53:39.818Z,70.00
2022-09-17T21:56:06.421Z,70.02
2022-09-17T21:58:33.649Z,70.10
2022-09-17T22:01:14.275Z,69.99
2022-09-17T22:03:41.936Z,70.14
2022-09-17T22:06:12.762Z,70.00
2022-09-17T22:08:39.940Z,69.95
2022-09-17T22:11:09.492Z,69.77
2022-09-17T22:13:36.796Z,69.99
2022-09-17T22:16:05.019Z,70.14
2022-09-17T22:18:32.858Z,70.18
2022-09-17T22:20:59.761Z,70.00
2022-09-17T22:23:27.229Z,70.02
2022-09-17T22:26:01.980Z,70.04
2022-09-17T22:28:28.690Z,70.16
2022-09-17T22:30:55.480Z,70.21
2022-09-17T22:33:22.512Z,70.07
2022-09-17T22:35:49.201Z,69.89
2022-09-17T22:38:15.887Z,70.02
2022-09-17T22:40:42.592Z,70.08
2022-09-17T22:43:09.263Z,70.19
2022-09-17T22:45:35.941Z,70.09
2022-09-17T22:48:04.281Z,70.16
2022-09-17T22:50:30.977Z,70.10
2022-09-17T22:52:57.735Z,70.03
2022-09-17T22:55:24.478Z,70.11
2022-09-17T22:57:51.164Z,70.25
2022-09-17T23:00:17.956Z,70.28
2022-09-17T23:02:44.974Z,70.12
2022-09-17T23:05:11.739Z,70.15
2022-09-17T23:07:38.431Z,70.26
2022-09-17T23:10:05.374Z,70.11
2022-09-17T23:12:32.094Z,70.19
2022-09-17T23:14:58.829Z,70.42
2022-09-17T23:17:29.281Z,70.29
2022-09-17T23:19:56.200Z,70.24
2022-09-17T23:22:23.151Z,70.36
2022-09-17T23:24:49.963Z,70.21
2022-09-17T23:27:16.745Z,70.32
2022-09-17T23:29:43.437Z,69.94
2022-09-17T23:32:10.161Z,70.01
2022-09-17T23:34:37.690Z,69.78
2022-09-17T23:37:04.419Z,70.08
2022-09-17T23:39:31.129Z,69.99
2022-09-17T23:41:57.908Z,69.90
2022-09-17T23:44:24.613Z,70.00
2022-09-17T23:46:51.373Z,70.00
2022-09-17T23:49:18.171Z,70.15
2022-09-17T23:51:44.905Z,70.07
2022-09-17T23:54:11.684Z,69.97
2022-09-17T23:56:38.411Z,69.90
2022-09-17T23:59:05.198Z,69.93
